Time,TemperatureF,DewpointF,PressureIn,WindDirection,WindDirectionDegrees,WindSpeedMPH,WindSpeedGustMPH,Humidity,HourlyPrecipIn,Conditions,Clouds,dailyrainin,SoftwareType,DateUTC
2013-11-16 00:13:00,41.0,-99.9,29.88,SSE,150,6.0,9.0,-999,-99.99,,,-99.99,,2013-11-16 06:13:00,
2013-11-16 00:22:00,41.0,-99.9,29.88,SSE,150,6.0,9.0,-999,-99.99,,,-99.99,,2013-11-16 06:22:00,
2013-11-16 00:32:00,41.0,-99.9,29.88,SSE,150,6.0,9.0,-999,-99.99,,,-99.99,,2013-11-16 06:32:00,
2013-11-16 00:40:00,42.0,-99.9,29.87,SSE,150,5.0,10.0,-999,-99.99,,,-99.99,,2013-11-16 06:40:00,
2013-11-16 01:11:00,42.0,-99.9,29.87,SSE,150,5.0,10.0,-999,-99.99,,,-99.99,,2013-11-16 07:11:00,
2013-11-16 01:22:00,42.0,-99.9,29.87,SSE,150,5.0,10.0,-999,-99.99,,,-99.99,,2013-11-16 07:22:00,
2013-11-16 01:33:00,42.0,-99.9,29.87,SSE,150,5.0,10.0,-999,-99.99,,,-99.99,,2013-11-16 07:33:00,
2013-11-16 02:40:00,42.0,-99.9,29.88,SSE,150,7.0,11.0,-999,-99.99,,,-99.99,,2013-11-16 08:40:00,
2013-11-16 03:11:00,42.0,-99.9,29.88,SSE,150,7.0,11.0,-999,-99.99,,,-99.99,,2013-11-16 09:11:00,
2013-11-16 03:22:00,42.0,-99.9,29.88,SSE,150,7.0,11.0,-999,-99.99,,,-99.99,,2013-11-16 09:22:00,
2013-11-16 03:33:00,42.0,-99.9,29.88,SSE,150,7.0,11.0,-999,-99.99,,,-99.99,,2013-11-16 09:33:00,
2013-11-16 03:40:00,43.0,-99.9,29.88,SSE,160,7.0,13.0,-999,-99.99,,,-99.99,,2013-11-16 09:40:00,
2013-11-16 04:13:00,43.0,-99.9,29.88,SSE,160,7.0,13.0,-999,-99.99,,,-99.99,,2013-11-16 10:13:00,
2013-11-16 04:23:00,43.0,-99.9,29.88,SSE,160,7.0,13.0,-999,-99.99,,,-99.99,,2013-11-16 10:23:00,
2013-11-16 04:34:00,43.0,-99.9,29.88,SSE,160,7.0,13.0,-999,-99.99,,,-99.99,,2013-11-16 10:34:00,
2013-11-16 04:40:00,43.0,-99.9,29.86,SSE,160,9.0,18.0,-999,-99.99,,,-99.99,,2013-11-16 10:40:00,
2013-11-16 05:12:00,43.0,-99.9,29.86,SSE,160,9.0,18.0,-999,-99.99,,,-99.99,,2013-11-16 11:12:00,
2013-11-16 05:22:00,43.0,-99.9,29.86,SSE,160,9.0,18.0,-999,-99.99,,,-99.99,,2013-11-16 11:22:00,
2013-11-16 05:32:00,43.0,-99.9,29.86,SSE,160,9.0,18.0,-999,-99.99,,,-99.99,,2013-11-16 11:32:00,
2013-11-16 05:40:00,44.0,-99.9,29.84,SSE,160,10.0,15.0,-999,-99.99,,,-99.99,,2013-11-16 11:40:00,
2013-11-16 06:12:00,44.0,-99.9,29.84,SSE,160,10.0,15.0,-999,-99.99,,,-99.99,,2013-11-16 12:12:00,
2013-11-16 06:22:00,44.0,-99.9,29.84,SSE,160,10.0,15.0,-999,-99.99,,,-99.99,,2013-11-16 12:22:00,
2013-11-16 06:32:00,44.0,-99.9,29.84,SSE,160,10.0,15.0,-999,-99.99,,,-99.99,,2013-11-16 12:32:00,
2013-11-16 06:40:00,44.0,-99.9,29.82,SSE,150,9.0,20.0,-999,-99.99,,,-99.99,,2013-11-16 12:40:00,
2013-11-16 07:11:00,44.0,-99.9,29.82,SSE,150,9.0,20.0,-999,-99.99,,,-99.99,,2013-11-16 13:11:00,
2013-11-16 07:22:00,44.0,-99.9,29.82,SSE,150,9.0,20.0,-999,-99.99,,,-99.99,,2013-11-16 13:22:00,
2013-11-16 07:32:00,44.0,-99.9,29.82,SSE,150,9.0,20.0,-999,-99.99,,,-99.99,,2013-11-16 13:32:00,
2013-11-16 07:40:00,44.0,-99.9,29.82,SSE,160,11.0,22.0,-999,-99.99,,,-99.99,,2013-11-16 13:40:00,
2013-11-16 08:11:00,44.0,-99.9,29.82,SSE,160,11.0,22.0,-999,-99.99,,,-99.99,,2013-11-16 14:11:00,
2013-11-16 08:22:00,44.0,-99.9,29.82,SSE,160,11.0,22.0,-999,-99.99,,,-99.99,,2013-11-16 14:22:00,
2013-11-16 08:32:00,44.0,-99.9,29.82,SSE,160,11.0,22.0,-999,-99.99,,,-99.99,,2013-11-16 14:32:00,
2013-11-16 09:11:00,45.0,-99.9,29.80,SSE,150,14.0,25.0,-999,-99.99,,,-99.99,,2013-11-16 15:11:00,
2013-11-16 09:22:00,45.0,-99.9,29.80,SSE,150,14.0,25.0,-999,-99.99,,,-99.99,,2013-11-16 15:22:00,
2013-11-16 09:40:00,44.0,-99.9,29.77,SSE,160,14.0,24.0,-999,-99.99,,,-99.99,,2013-11-16 15:40:00,
2013-11-16 09:43:00,45.0,-99.9,29.78,SSE,160,14.0,29.0,-999,-99.99,,,-99.99,,2013-11-16 15:43:00,
2013-11-16 09:54:00,45.0,-99.9,29.78,SSE,160,14.0,29.0,-999,-99.99,,,-99.99,,2013-11-16 15:54:00,
2013-11-16 10:13:00,44.0,-99.9,29.77,SSE,160,14.0,24.0,-999,-99.99,,,-99.99,,2013-11-16 16:13:00,
2013-11-16 10:23:00,44.0,-99.9,29.77,SSE,160,14.0,24.0,-999,-99.99,,,-99.99,,2013-11-16 16:23:00,
2013-11-16 10:33:00,44.0,-99.9,29.77,SSE,160,14.0,24.0,-999,-99.99,,,-99.99,,2013-11-16 16:33:00,
2013-11-16 11:13:00,45.0,-99.9,29.76,SSE,160,11.0,24.0,-999,-99.99,,,-99.99,,2013-11-16 17:13:00,
2013-11-16 11:23:00,45.0,-99.9,29.76,SSE,160,11.0,24.0,-999,-99.99,,,-99.99,,2013-11-16 17:23:00,
2013-11-16 11:34:00,45.0,-99.9,29.76,SSE,160,11.0,24.0,-999,-99.99,,,-99.99,,2013-11-16 17:34:00,
2013-11-16 11:40:00,46.0,-99.9,29.73,SSE,150,14.0,23.0,-999,-99.99,,,-99.99,,2013-11-16 17:40:00,
2013-11-16 11:52:00,45.0,-99.9,29.75,SSE,150,11.0,25.0,-999,-99.99,,,-99.99,,2013-11-16 17:52:00,
2013-11-16 12:12:00,46.0,-99.9,29.73,SSE,150,14.0,23.0,-999,-99.99,,,-99.99,,2013-11-16 18:12:00,
2013-11-16 12:24:00,46.0,-99.9,29.73,SSE,150,14.0,23.0,-999,-99.99,,,-99.99,,2013-11-16 18:24:00,
2013-11-16 12:32:00,46.0,-99.9,29.73,SSE,150,14.0,23.0,-999,-99.99,,,-99.99,,2013-11-16 18:32:00,
2013-11-16 12:40:00,46.0,-99.9,29.70,SSE,160,14.0,23.0,-999,-99.99,,,-99.99,,2013-11-16 18:40:00,
2013-11-16 13:12:00,46.0,-99.9,29.70,SSE,160,14.0,23.0,-999,-99.99,,,-99.99,,2013-11-16 19:12:00,
2013-11-16 13:22:00,46.0,-99.9,29.70,SSE,160,14.0,23.0,-999,-99.99,,,-99.99,,2013-11-16 19:22:00,
2013-11-16 13:32:00,46.0,-99.9,29.70,SSE,160,14.0,23.0,-999,-99.99,,,-99.99,,2013-11-16 19:32:00,
2013-11-16 14:12:00,47.0,-99.9,29.67,SSE,160,14.0,24.0,-999,-99.99,,,-99.99,,2013-11-16 20:12:00,
2013-11-16 14:22:00,47.0,-99.9,29.67,SSE,160,14.0,24.0,-999,-99.99,,,-99.99,,2013-11-16 20:22:00,
2013-11-16 15:12:00,46.0,-99.9,29.64,SSE,160,14.0,23.0,-999,-99.99,,,-99.99,,2013-11-16 21:12:00,
2013-11-16 15:44:00,47.0,-99.9,29.62,SSE,150,14.0,-999.0,-999,-99.99,,,-99.99,,2013-11-16 21:44:00,
2013-11-16 15:54:00,47.0,-99.9,29.62,SSE,150,14.0,-999.0,-999,-99.99,,,-99.99,,2013-11-16 21:54:00,
2013-11-16 16:42:00,48.0,-99.9,29.60,SSE,160,16.0,-999.0,-999,-99.99,,,-99.99,,2013-11-16 22:42:00,
2013-11-16 16:53:00,48.0,-99.9,29.60,SSE,160,16.0,-999.0,-999,-99.99,,,-99.99,,2013-11-16 22:53:00,
2013-11-16 17:01:00,48.0,-99.9,29.57,SSE,160,17.0,-999.0,-999,-99.99,,,-99.99,,2013-11-16 23:01:00,
2013-11-16 17:22:00,48.0,-99.9,29.57,SSE,160,17.0,-999.0,-999,-99.99,,,-99.99,,2013-11-16 23:22:00,
2013-11-16 17:34:00,48.0,-99.9,29.57,SSE,160,17.0,-999.0,-999,-99.99,,,-99.99,,2013-11-16 23:34:00,
2013-11-16 17:43:00,48.0,-99.9,29.57,SSE,160,17.0,-999.0,-999,-99.99,,,-99.99,,2013-11-16 23:43:00,
2013-11-16 17:53:00,48.0,-99.9,29.57,SSE,160,17.0,-999.0,-999,-99.99,,,-99.99,,2013-11-16 23:53:00,
2013-11-16 18:52:00,48.0,-99.9,29.52,SSE,150,15.0,28.0,-999,-99.99,,,-99.99,,2013-11-17 00:52:00,
2013-11-16 19:12:00,48.0,-99.9,29.50,SSE,150,17.0,26.0,-999,-99.99,,,-99.99,,2013-11-17 01:12:00,
2013-11-16 19:22:00,48.0,-99.9,29.50,SSE,150,17.0,26.0,-999,-99.99,,,-99.99,,2013-11-17 01:22:00,
2013-11-16 19:32:00,48.0,-99.9,29.50,SSE,150,17.0,26.0,-999,-99.99,,,-99.99,,2013-11-17 01:32:00,
2013-11-16 19:40:00,49.0,-99.9,29.46,SSE,150,18.0,33.0,-999,-99.99,,,-99.99,,2013-11-17 01:40:00,
2013-11-16 20:12:00,49.0,-99.9,29.46,SSE,150,18.0,33.0,-999,-99.99,,,-99.99,,2013-11-17 02:12:00,
2013-11-16 20:22:00,49.0,-99.9,29.46,SSE,150,18.0,33.0,-999,-99.99,,,-99.99,,2013-11-17 02:22:00,
2013-11-16 20:32:00,49.0,-99.9,29.46,SSE,150,18.0,33.0,-999,-99.99,,,-99.99,,2013-11-17 02:32:00,
2013-11-16 21:12:00,51.0,-99.9,29.45,South,170,13.0,34.0,-999,-99.99,,,-99.99,,2013-11-17 03:12:00,
2013-11-16 21:22:00,51.0,-99.9,29.45,South,170,13.0,34.0,-999,-99.99,,,-99.99,,2013-11-17 03:22:00,
2013-11-16 21:34:00,51.0,-99.9,29.45,South,170,13.0,34.0,-999,-99.99,,,-99.99,,2013-11-17 03:34:00,
2013-11-16 21:40:00,51.0,-99.9,29.46,SSE,160,13.0,26.0,-999,-99.99,,,-99.99,,2013-11-17 03:40:00,
2013-11-16 21:56:00,51.0,-99.9,29.45,South,170,16.0,-999.0,-999,-99.99,,,-99.99,,2013-11-17 03:56:00,
2013-11-16 22:03:00,-999.0,-99.9,-100.00,SSE,160,13.0,26.0,-999,-99.99,,,-99.99,,2013-11-17 04:03:00,
2013-11-16 22:14:00,51.0,-99.9,29.46,SSE,160,13.0,26.0,-999,-99.99,,,-99.99,,2013-11-17 04:14:00,
2013-11-16 22:24:00,51.0,-99.9,29.46,SSE,160,13.0,26.0,-999,-99.99,,,-99.99,,2013-11-17 04:24:00,
2013-11-16 22:35:00,51.0,-99.9,29.46,SSE,160,13.0,26.0,-999,-99.99,,,-99.99,,2013-11-17 04:35:00,
2013-11-16 22:40:00,51.0,-99.9,29.44,SSE,160,14.0,28.0,-999,-99.99,,,-99.99,,2013-11-17 04:40:00,
2013-11-16 23:13:00,51.0,-99.9,29.44,SSE,160,14.0,28.0,-999,-99.99,,,-99.99,,2013-11-17 05:13:00,
2013-11-16 23:24:00,51.0,-99.9,29.44,SSE,160,14.0,28.0,-999,-99.99,,,-99.99,,2013-11-17 05:24:00,
2013-11-16 23:34:00,51.0,-99.9,29.44,SSE,160,14.0,28.0,-999,-99.99,,,-99.99,,2013-11-17 05:34:00,